• Join FlightAware (Why Join?)
  • Login
  • US Flag 
06:46PM EDT


 

Airport Tracker/Info


-or-


 

Live Flight TrackerFlight Track Log ✈ LOT231 ✈ 26-Aug-2013 ✈ EPWA / WAW - EBBR / BRU

Flight Track Log - Related Links

Times and Time Zones

All times are in EDT time to prevent confusion due to time zone crossing. See the LOT231 flight status page for this flight to view local times or setup timezone preferences in your user account.

Time Position Orientation Groundspeed Altitude Reporting Facility
EDT Latitude Longitude Course Direction KTS MPH feet Rate Location/Type
02:03PM 52.1577 20.0920 269° West  Level Estimated
02:04PM 52.1553 19.9170 269° West  Level Estimated
02:05PM 52.1527 19.7421 269° West  Level Estimated
02:06PM 52.1498 19.5671 269° West  Level Estimated
02:07PM 52.1466 19.3922 268° West  Level Estimated
02:08PM 52.1432 19.2173 268° West  Level Estimated
02:09PM 52.1395 19.0424 268° West  Level Estimated
02:10PM 52.1356 18.8676 268° West  Level Estimated
02:11PM 52.1314 18.6928 268° West  Level Estimated
02:12PM 52.1270 18.5180 268° West  Level Estimated
02:13PM 52.1222 18.3433 268° West  Level Estimated
02:14PM 52.1173 18.1686 267° West  Level Estimated
02:15PM 52.1120 17.9940 267° West  Level Estimated
02:16PM 52.1066 17.8194 267° West  Level Estimated
02:17PM 52.1008 17.6448 267° West  Level Estimated
02:18PM 52.0948 17.4703 267° West  Level Estimated
02:19PM 52.0886 17.2958 267° West  Level Estimated
02:20PM 52.0821 17.1214 267° West  Level Estimated
02:21PM 52.0753 16.9470 266° West  Level Estimated
02:22PM 52.0682 16.7727 266° West  Level Estimated
02:23PM 52.0610 16.5984 266° West  Level Estimated
02:24PM 52.0534 16.4242 266° West  Level Estimated
02:25PM 52.0456 16.2501 266° West  Level Estimated
02:26PM 52.0376 16.0760 266° West  Level Estimated
02:27PM 52.0293 15.9020 266° West  Level Estimated
02:28PM 52.0207 15.7280 265° West  Level Estimated
02:29PM 52.0118 15.5542 265° West  Level Estimated
02:30PM 52.0028 15.3804 265° West  Level Estimated
02:31PM 51.9934 15.2066 265° West  Level Estimated
02:32PM 51.9838 15.0329 265° West  Level Estimated
02:33PM 51.9740 14.8594 265° West  Level Estimated
02:34PM 51.9639 14.6858 265° West  Level Estimated
02:35PM 51.9535 14.5124 265° West  Level Estimated
02:36PM 51.9429 14.3390 264° West  Level Estimated
02:37PM 51.9320 14.1658 264° West  Level Estimated
02:38PM 51.9209 13.9926 264° West  Level Estimated
02:39PM 51.9095 13.8195 264° West  Level Estimated
02:40PM 51.8979 13.6465 264° West  Level Estimated
02:41PM 51.8860 13.4735 264° West  Level Estimated
02:42PM 51.8739 13.3007 264° West  Level Estimated
02:43PM 51.8615 13.1280 263° West  Level Estimated
02:44PM 51.8489 12.9553 263° West  Level Estimated
02:45PM 51.8360 12.7828 263° West  Level Estimated
02:46PM 51.8228 12.6103 263° West  Level Estimated
02:47PM 51.8094 12.4380 263° West  Level Estimated
02:48PM 51.7958 12.2658 263° West  Level Estimated
02:49PM 51.7819 12.0936 263° West  Level Estimated
02:50PM 51.7677 11.9216 262° West  Level Estimated
02:51PM 51.7533 11.7497 262° West  Level Estimated
02:52PM 51.7387 11.5779 262° West  Level Estimated
02:53PM 51.7238 11.4062 262° West  Level Estimated
02:54PM 51.7086 11.2346 262° West  Level Estimated
02:55PM 51.6932 11.0632 262° West  Level Estimated
02:56PM 51.6776 10.8918 262° West  Level Estimated
02:57PM 51.6617 10.7206 262° West  Level Estimated
02:58PM 51.6455 10.5495 261° West  Level Estimated
02:59PM 51.6291 10.3785 261° West  Level Estimated
03:00PM 51.6124 10.2076 261° West  Level Estimated
03:01PM 51.5956 10.0369 261° West  Level Estimated
03:02PM 51.5784 9.8663 261° West  Level Estimated
03:03PM 51.5610 9.6958 261° West  Level Estimated
03:04PM 51.5434 9.5255 261° West  Level Estimated
03:05PM 51.5255 9.3553 260° West  Level Estimated
03:06PM 51.5074 9.1852 260° West  Level Estimated
03:07PM 51.4890 9.0153 260° West  Level Estimated
03:08PM 51.4704 8.8455 260° West  Level Estimated
03:09PM 51.4515 8.6758 260° West  Level Estimated
03:10PM 51.4324 8.5063 260° West  Level Estimated
03:11PM 51.4130 8.3369 260° West  Level Estimated
03:12PM 51.3934 8.1677 260° West  Level Estimated
03:13PM 51.3736 7.9986 259° West  Level Estimated
03:14PM 51.3535 7.8296 259° West  Level Estimated
03:15PM 51.3332 7.6608 259° West  Level Estimated
03:16PM 51.3126 7.4922 259° West  Level Estimated
03:17PM 51.2918 7.3237 259° West  Level Estimated
03:18PM 51.2707 7.1554 259° West  Level Estimated
03:19PM 51.2494 6.9872 259° West  Level Estimated
03:20PM 51.2279 6.8192 258° West  Level Estimated
03:21PM 51.2061 6.6513 258° West  Level Estimated
03:22PM 51.1841 6.4836 258° West  Level Estimated
03:23PM 51.1618 6.3160 258° West  Level Estimated
03:24PM 51.1393 6.1487 258° West  Level Estimated
03:25PM 51.1166 5.9814 258° West  Level Estimated
03:26PM 51.0936 5.8144 258° West  Level Estimated
03:27PM 51.0704 5.6475 258° West  Level Estimated
03:28PM 51.0470 5.4808 257° West  Level Estimated
03:29PM 51.0233 5.3142 257° West  Level Estimated
03:30PM 50.9994 5.1479 257° West  Level Estimated
03:31PM 50.9752 4.9816 257° West  Level Estimated
03:32PM 50.9508 4.8156 257° West  Level Estimated
03:33PM 50.9262 4.6498 257° West  Level Estimated
03:34PM 50.9014 4.4844 257° West  Level Estimated
03:35PM 50.9014 4.4844 112° Southeast  Level Estimated
03:36PM 50.9014 4.4844 112° Southeast  Level Estimated
03:37PM 50.9014 4.4844 112° Southeast  Level Estimated
03:38PM 50.9014 4.4844 112° Southeast  Level Estimated
03:39PM 50.9014 4.4844 112° Southeast  Level Estimated
03:40PM 50.9014 4.4844 112° Southeast  Level Estimated
03:41PM 50.9014 4.4844 112° Southeast  Level Estimated
03:42PM 50.9014 4.4844 112° Southeast  Level Estimated
03:43PM 50.9014 4.4844 112° Southeast  Level Estimated
03:44PM 50.9014 4.4844 112° Southeast  Level Estimated
03:45PM 50.9014 4.4844 112° Southeast  Level Estimated
03:46PM 50.9014 4.4844 112° Southeast  Level Estimated
03:47PM 50.9014 4.4844 112° Southeast  Level Estimated
03:48PM 50.9014 4.4844 112° Southeast  Level Estimated
03:49PM 50.9014 4.4844 112° Southeast  Level Estimated
03:50PM 50.9014 4.4844 112° Southeast  Level Estimated